Niangua, Missouri
Current Conditions -  °F | °C
As of 6:52 AM on Friday 19 Dec 2014 (Local Time) from KSGF Reporting Station
Overcast Overcast  
Wind Chill: 32°   Ceiling: 700
Heat Index: 37°   Visibility: 7mi
Dew Point: 35°   Wind: 6mph
Humidity: 93%   Direction: 130°SE
Pressure: 30.21"   Gusts: NA
Location:  37.39°N, 92.83°W
Report Text: KSGF 191252Z 13005KT 7SM OVC007 03/02 A3021 RMK AO2 CIG 005V009 SLP238 T00280017
Loading
Personal Weather Stations






























Interactive Weather Map New forecast layout! Learn more

10-Day Weather Forecast

Advertisements
Track Severe Weather on mobile